sensor_id;sensor_type;location;lat;lon;timestamp;temperature;humidity
37412;DHT22;23278;52.110;6.050;2022-12-29T00:01:38;10.70;99.90
37412;DHT22;23278;52.110;6.050;2022-12-29T00:04:04;10.80;99.90
37412;DHT22;23278;52.110;6.050;2022-12-29T00:06:31;10.80;99.90
37412;DHT22;23278;52.110;6.050;2022-12-29T00:08:56;10.80;99.90
37412;DHT22;23278;52.110;6.050;2022-12-29T00:11:24;10.80;99.90
37412;DHT22;23278;52.110;6.050;2022-12-29T00:13:51;10.80;99.90
37412;DHT22;23278;52.110;6.050;2022-12-29T00:16:36;10.80;99.90
37412;DHT22;23278;52.110;6.050;2022-12-29T00:19:03;10.90;99.90
37412;DHT22;23278;52.110;6.050;2022-12-29T00:21:30;10.90;99.90
37412;DHT22;23278;52.110;6.050;2022-12-29T00:24:18;10.90;99.90
37412;DHT22;23278;52.110;6.050;2022-12-29T00:26:58;10.90;99.90
37412;DHT22;23278;52.110;6.050;2022-12-29T00:29:49;10.90;99.90
37412;DHT22;23278;52.110;6.050;2022-12-29T00:32:33;10.90;99.90
37412;DHT22;23278;52.110;6.050;2022-12-29T00:37:54;10.90;99.90
37412;DHT22;23278;52.110;6.050;2022-12-29T00:40:40;10.90;99.90
37412;DHT22;23278;52.110;6.050;2022-12-29T00:43:25;10.90;99.90
37412;DHT22;23278;52.110;6.050;2022-12-29T00:46:09;10.90;99.90
37412;DHT22;23278;52.110;6.050;2022-12-29T00:48:35;10.90;99.90
37412;DHT22;23278;52.110;6.050;2022-12-29T00:51:19;10.90;99.90
37412;DHT22;23278;52.110;6.050;2022-12-29T00:53:45;10.90;99.90
37412;DHT22;23278;52.110;6.050;2022-12-29T00:56:11;10.90;99.90
37412;DHT22;23278;52.110;6.050;2022-12-29T00:58:36;10.90;99.90
37412;DHT22;23278;52.110;6.050;2022-12-29T01:01:07;10.90;99.90
37412;DHT22;23278;52.110;6.050;2022-12-29T01:03:35;10.90;99.90
37412;DHT22;23278;52.110;6.050;2022-12-29T01:06:02;10.90;99.90
37412;DHT22;23278;52.110;6.050;2022-12-29T01:08:28;10.90;99.90
37412;DHT22;23278;52.110;6.050;2022-12-29T01:11:02;10.90;99.90
37412;DHT22;23278;52.110;6.050;2022-12-29T01:13:28;10.90;99.90
37412;DHT22;23278;52.110;6.050;2022-12-29T01:15:54;10.90;99.90
37412;DHT22;23278;52.110;6.050;2022-12-29T01:18:21;10.90;99.90
37412;DHT22;23278;52.110;6.050;2022-12-29T01:20:47;10.90;99.90
37412;DHT22;23278;52.110;6.050;2022-12-29T01:23:13;10.90;99.90
37412;DHT22;23278;52.110;6.050;2022-12-29T01:25:39;10.90;99.90
37412;DHT22;23278;52.110;6.050;2022-12-29T01:28:05;11.00;99.90
37412;DHT22;23278;52.110;6.050;2022-12-29T01:30:36;11.00;99.90
37412;DHT22;23278;52.110;6.050;2022-12-29T01:33:02;11.00;99.90
37412;DHT22;23278;52.110;6.050;2022-12-29T01:35:28;11.00;99.90
37412;DHT22;23278;52.110;6.050;2022-12-29T01:37:57;11.00;99.90
37412;DHT22;23278;52.110;6.050;2022-12-29T01:40:23;11.00;99.90
37412;DHT22;23278;52.110;6.050;2022-12-29T01:42:49;11.00;99.90
37412;DHT22;23278;52.110;6.050;2022-12-29T01:45:16;10.90;99.90
37412;DHT22;23278;52.110;6.050;2022-12-29T01:47:59;10.90;99.90
37412;DHT22;23278;52.110;6.050;2022-12-29T01:50:32;10.90;99.90
37412;DHT22;23278;52.110;6.050;2022-12-29T01:53:25;10.90;99.90
37412;DHT22;23278;52.110;6.050;2022-12-29T01:55:56;10.90;99.90
37412;DHT22;23278;52.110;6.050;2022-12-29T01:58:26;10.90;99.90
37412;DHT22;23278;52.110;6.050;2022-12-29T02:00:54;10.90;99.90
37412;DHT22;23278;52.110;6.050;2022-12-29T02:03:22;10.80;99.90
37412;DHT22;23278;52.110;6.050;2022-12-29T02:08:21;10.80;99.90
37412;DHT22;23278;52.110;6.050;2022-12-29T02:10:49;10.90;99.90
37412;DHT22;23278;52.110;6.050;2022-12-29T02:13:16;10.90;99.90
37412;DHT22;23278;52.110;6.050;2022-12-29T02:18:33;10.80;99.90
37412;DHT22;23278;52.110;6.050;2022-12-29T02:38:31;10.70;99.90
37412;DHT22;23278;52.110;6.050;2022-12-29T02:40:39;10.70;99.90
37412;DHT22;23278;52.110;6.050;2022-12-29T02:49:08;10.60;99.90
37412;DHT22;23278;52.110;6.050;2022-12-29T02:54:18;10.50;99.90
37412;DHT22;23278;52.110;6.050;2022-12-29T02:59:40;10.30;99.90
37412;DHT22;23278;52.110;6.050;2022-12-29T03:10:37;10.20;99.90
37412;DHT22;23278;52.110;6.050;2022-12-29T03:13:26;10.20;99.90
37412;DHT22;23278;52.110;6.050;2022-12-29T03:16:35;10.20;99.90
37412;DHT22;23278;52.110;6.050;2022-12-29T03:19:15;10.20;99.90
37412;DHT22;23278;52.110;6.050;2022-12-29T03:21:45;10.20;99.90
37412;DHT22;23278;52.110;6.050;2022-12-29T03:24:41;10.20;99.90
37412;DHT22;23278;52.110;6.050;2022-12-29T03:27:14;10.20;99.90
37412;DHT22;23278;52.110;6.050;2022-12-29T03:29:47;10.20;99.90
37412;DHT22;23278;52.110;6.050;2022-12-29T03:32:21;10.20;99.90
37412;DHT22;23278;52.110;6.050;2022-12-29T03:34:49;10.20;99.90
37412;DHT22;23278;52.110;6.050;2022-12-29T03:37:23;10.10;99.90
37412;DHT22;23278;52.110;6.050;2022-12-29T03:39:52;10.00;99.90
37412;DHT22;23278;52.110;6.050;2022-12-29T03:42:25;10.10;99.90
37412;DHT22;23278;52.110;6.050;2022-12-29T03:44:54;10.00;99.90
37412;DHT22;23278;52.110;6.050;2022-12-29T03:47:23;10.00;99.90
37412;DHT22;23278;52.110;6.050;2022-12-29T03:49:50;10.00;99.90
37412;DHT22;23278;52.110;6.050;2022-12-29T03:52:17;10.00;99.90
37412;DHT22;23278;52.110;6.050;2022-12-29T03:54:44;10.00;99.90
37412;DHT22;23278;52.110;6.050;2022-12-29T03:57:11;10.10;99.90
37412;DHT22;23278;52.110;6.050;2022-12-29T03:59:47;10.10;99.90
37412;DHT22;23278;52.110;6.050;2022-12-29T04:02:13;10.00;99.90
37412;DHT22;23278;52.110;6.050;2022-12-29T04:04:40;10.10;99.90
37412;DHT22;23278;52.110;6.050;2022-12-29T04:07:06;10.00;99.90
37412;DHT22;23278;52.110;6.050;2022-12-29T04:09:32;9.90;99.90
37412;DHT22;23278;52.110;6.050;2022-12-29T04:11:59;9.90;99.90
37412;DHT22;23278;52.110;6.050;2022-12-29T04:14:26;9.80;99.90
37412;DHT22;23278;52.110;6.050;2022-12-29T04:16:52;9.80;99.90
37412;DHT22;23278;52.110;6.050;2022-12-29T04:19:18;9.90;99.90
37412;DHT22;23278;52.110;6.050;2022-12-29T04:21:45;9.90;99.90
37412;DHT22;23278;52.110;6.050;2022-12-29T04:24:11;10.00;99.90
37412;DHT22;23278;52.110;6.050;2022-12-29T04:26:40;10.00;99.90
37412;DHT22;23278;52.110;6.050;2022-12-29T04:29:45;10.00;99.90
37412;DHT22;23278;52.110;6.050;2022-12-29T04:32:24;10.00;99.90
37412;DHT22;23278;52.110;6.050;2022-12-29T04:34:53;10.10;99.90
37412;DHT22;23278;52.110;6.050;2022-12-29T04:37:19;10.00;99.90
37412;DHT22;23278;52.110;6.050;2022-12-29T04:39:45;10.00;99.90
37412;DHT22;23278;52.110;6.050;2022-12-29T04:42:11;10.00;99.90
37412;DHT22;23278;52.110;6.050;2022-12-29T04:44:37;10.00;99.90
37412;DHT22;23278;52.110;6.050;2022-12-29T04:47:17;10.10;99.90
37412;DHT22;23278;52.110;6.050;2022-12-29T04:50:04;10.10;99.90
37412;DHT22;23278;52.110;6.050;2022-12-29T04:52:50;10.10;99.90
37412;DHT22;23278;52.110;6.050;2022-12-29T04:55:17;10.10;99.90
37412;DHT22;23278;52.110;6.050;2022-12-29T04:57:42;10.10;99.90
37412;DHT22;23278;52.110;6.050;2022-12-29T05:00:13;10.10;99.90
37412;DHT22;23278;52.110;6.050;2022-12-29T05:02:40;10.10;99.90
37412;DHT22;23278;52.110;6.050;2022-12-29T05:05:06;10.10;99.90
37412;DHT22;23278;52.110;6.050;2022-12-29T05:07:35;10.10;99.90
37412;DHT22;23278;52.110;6.050;2022-12-29T05:10:01;10.10;99.90
37412;DHT22;23278;52.110;6.050;2022-12-29T05:12:31;10.10;99.90
37412;DHT22;23278;52.110;6.050;2022-12-29T05:14:59;10.10;99.90
37412;DHT22;23278;52.110;6.050;2022-12-29T05:17:25;10.10;99.90
37412;DHT22;23278;52.110;6.050;2022-12-29T05:19:52;10.10;99.90
37412;DHT22;23278;52.110;6.050;2022-12-29T05:22:18;10.00;99.90
37412;DHT22;23278;52.110;6.050;2022-12-29T05:24:44;10.00;99.90
37412;DHT22;23278;52.110;6.050;2022-12-29T05:27:10;9.90;99.90
37412;DHT22;23278;52.110;6.050;2022-12-29T05:29:55;9.90;99.90
37412;DHT22;23278;52.110;6.050;2022-12-29T05:32:21;9.90;99.90
37412;DHT22;23278;52.110;6.050;2022-12-29T05:34:47;9.90;99.90
37412;DHT22;23278;52.110;6.050;2022-12-29T05:37:13;9.90;99.90
37412;DHT22;23278;52.110;6.050;2022-12-29T05:39:40;9.90;99.90
37412;DHT22;23278;52.110;6.050;2022-12-29T05:42:07;9.80;99.90
37412;DHT22;23278;52.110;6.050;2022-12-29T05:44:47;9.80;99.90
37412;DHT22;23278;52.110;6.050;2022-12-29T05:47:34;9.70;99.90
37412;DHT22;23278;52.110;6.050;2022-12-29T05:50:35;9.70;99.90
37412;DHT22;23278;52.110;6.050;2022-12-29T05:53:07;9.60;99.90
37412;DHT22;23278;52.110;6.050;2022-12-29T05:55:35;9.50;99.90
37412;DHT22;23278;52.110;6.050;2022-12-29T05:58:01;9.40;99.90
37412;DHT22;23278;52.110;6.050;2022-12-29T06:00:27;9.40;99.90
37412;DHT22;23278;52.110;6.050;2022-12-29T06:02:53;9.50;99.90
37412;DHT22;23278;52.110;6.050;2022-12-29T06:05:20;9.60;99.90
37412;DHT22;23278;52.110;6.050;2022-12-29T06:07:45;9.60;99.90
37412;DHT22;23278;52.110;6.050;2022-12-29T06:10:14;9.50;99.90
37412;DHT22;23278;52.110;6.050;2022-12-29T06:12:44;9.60;99.90
37412;DHT22;23278;52.110;6.050;2022-12-29T06:15:10;9.50;99.90
37412;DHT22;23278;52.110;6.050;2022-12-29T06:17:39;9.50;99.90
37412;DHT22;23278;52.110;6.050;2022-12-29T06:20:06;9.60;99.90
37412;DHT22;23278;52.110;6.050;2022-12-29T06:22:33;9.70;99.90
37412;DHT22;23278;52.110;6.050;2022-12-29T06:25:00;9.70;99.90
37412;DHT22;23278;52.110;6.050;2022-12-29T06:27:27;9.80;99.90
37412;DHT22;23278;52.110;6.050;2022-12-29T06:29:53;9.80;99.90
37412;DHT22;23278;52.110;6.050;2022-12-29T06:32:20;9.80;99.90
37412;DHT22;23278;52.110;6.050;2022-12-29T06:34:50;9.90;99.90
37412;DHT22;23278;52.110;6.050;2022-12-29T06:37:16;9.90;99.90
37412;DHT22;23278;52.110;6.050;2022-12-29T06:39:42;9.90;99.90
37412;DHT22;23278;52.110;6.050;2022-12-29T06:42:11;9.90;99.90
37412;DHT22;23278;52.110;6.050;2022-12-29T06:45:05;9.90;99.90
37412;DHT22;23278;52.110;6.050;2022-12-29T06:47:34;9.90;99.90
37412;DHT22;23278;52.110;6.050;2022-12-29T06:50:00;9.90;99.90
37412;DHT22;23278;52.110;6.050;2022-12-29T06:52:26;9.90;99.90
37412;DHT22;23278;52.110;6.050;2022-12-29T06:54:54;9.90;99.90
37412;DHT22;23278;52.110;6.050;2022-12-29T06:57:21;9.80;99.90
37412;DHT22;23278;52.110;6.050;2022-12-29T06:59:47;9.70;99.90
37412;DHT22;23278;52.110;6.050;2022-12-29T07:02:13;9.70;99.90
37412;DHT22;23278;52.110;6.050;2022-12-29T07:04:40;9.60;99.90
37412;DHT22;23278;52.110;6.050;2022-12-29T07:07:06;9.60;99.90
37412;DHT22;23278;52.110;6.050;2022-12-29T07:09:32;9.50;99.90
37412;DHT22;23278;52.110;6.050;2022-12-29T07:11:58;9.40;99.90
37412;DHT22;23278;52.110;6.050;2022-12-29T07:14:24;9.40;99.90
37412;DHT22;23278;52.110;6.050;2022-12-29T07:16:50;9.40;99.90
37412;DHT22;23278;52.110;6.050;2022-12-29T07:19:15;9.40;99.90
37412;DHT22;23278;52.110;6.050;2022-12-29T07:21:42;9.30;99.90
37412;DHT22;23278;52.110;6.050;2022-12-29T07:24:08;9.20;99.90
37412;DHT22;23278;52.110;6.050;2022-12-29T07:26:35;9.00;99.90
37412;DHT22;23278;52.110;6.050;2022-12-29T07:29:03;8.80;99.90
37412;DHT22;23278;52.110;6.050;2022-12-29T07:31:29;8.70;99.90
37412;DHT22;23278;52.110;6.050;2022-12-29T07:33:56;8.60;99.90
37412;DHT22;23278;52.110;6.050;2022-12-29T07:36:22;8.60;99.90
37412;DHT22;23278;52.110;6.050;2022-12-29T07:38:48;8.60;99.90
37412;DHT22;23278;52.110;6.050;2022-12-29T07:41:14;8.60;99.90
37412;DHT22;23278;52.110;6.050;2022-12-29T07:43:40;8.60;99.90
37412;DHT22;23278;52.110;6.050;2022-12-29T07:46:22;8.60;99.90
37412;DHT22;23278;52.110;6.050;2022-12-29T07:48:48;8.60;99.90
37412;DHT22;23278;52.110;6.050;2022-12-29T07:51:14;8.60;99.90
37412;DHT22;23278;52.110;6.050;2022-12-29T07:53:40;8.70;99.90
37412;DHT22;23278;52.110;6.050;2022-12-29T07:56:06;8.70;99.90
37412;DHT22;23278;52.110;6.050;2022-12-29T07:58:32;8.70;99.90
37412;DHT22;23278;52.110;6.050;2022-12-29T08:00:58;8.70;99.90
37412;DHT22;23278;52.110;6.050;2022-12-29T08:03:24;8.80;99.90
37412;DHT22;23278;52.110;6.050;2022-12-29T08:05:51;8.80;99.90
37412;DHT22;23278;52.110;6.050;2022-12-29T08:08:17;8.80;99.90
37412;DHT22;23278;52.110;6.050;2022-12-29T08:10:43;8.80;99.90
37412;DHT22;23278;52.110;6.050;2022-12-29T08:13:09;8.80;99.90
37412;DHT22;23278;52.110;6.050;2022-12-29T08:15:37;8.80;99.90
37412;DHT22;23278;52.110;6.050;2022-12-29T08:18:03;8.70;99.90
37412;DHT22;23278;52.110;6.050;2022-12-29T08:20:29;8.70;99.90
37412;DHT22;23278;52.110;6.050;2022-12-29T08:22:55;8.80;99.90
37412;DHT22;23278;52.110;6.050;2022-12-29T08:25:21;8.80;99.90
37412;DHT22;23278;52.110;6.050;2022-12-29T08:27:47;8.80;99.90
37412;DHT22;23278;52.110;6.050;2022-12-29T08:30:13;8.90;99.90
37412;DHT22;23278;52.110;6.050;2022-12-29T08:32:39;9.10;99.90
37412;DHT22;23278;52.110;6.050;2022-12-29T08:35:05;9.20;99.90
37412;DHT22;23278;52.110;6.050;2022-12-29T08:37:32;9.30;99.90
37412;DHT22;23278;52.110;6.050;2022-12-29T08:39:58;9.30;99.90
37412;DHT22;23278;52.110;6.050;2022-12-29T08:42:25;9.30;99.90
37412;DHT22;23278;52.110;6.050;2022-12-29T08:44:57;9.20;99.90
37412;DHT22;23278;52.110;6.050;2022-12-29T08:47:24;9.20;99.90
37412;DHT22;23278;52.110;6.050;2022-12-29T08:49:50;9.30;99.90
37412;DHT22;23278;52.110;6.050;2022-12-29T08:52:16;9.30;99.90
37412;DHT22;23278;52.110;6.050;2022-12-29T08:54:41;9.20;99.90
37412;DHT22;23278;52.110;6.050;2022-12-29T08:57:07;9.10;99.90
37412;DHT22;23278;52.110;6.050;2022-12-29T08:59:38;9.00;99.90
37412;DHT22;23278;52.110;6.050;2022-12-29T09:02:05;8.90;99.90
37412;DHT22;23278;52.110;6.050;2022-12-29T09:04:31;8.90;99.90
37412;DHT22;23278;52.110;6.050;2022-12-29T09:06:57;9.10;99.90
37412;DHT22;23278;52.110;6.050;2022-12-29T09:09:23;9.20;99.90
37412;DHT22;23278;52.110;6.050;2022-12-29T09:11:48;9.30;99.90
37412;DHT22;23278;52.110;6.050;2022-12-29T09:14:14;9.30;99.90
37412;DHT22;23278;52.110;6.050;2022-12-29T09:16:41;9.40;99.90
37412;DHT22;23278;52.110;6.050;2022-12-29T09:19:25;9.50;99.90
37412;DHT22;23278;52.110;6.050;2022-12-29T09:21:51;9.50;99.90
37412;DHT22;23278;52.110;6.050;2022-12-29T09:24:17;9.40;99.90
37412;DHT22;23278;52.110;6.050;2022-12-29T09:26:43;9.30;99.90
37412;DHT22;23278;52.110;6.050;2022-12-29T09:29:09;9.30;99.90
37412;DHT22;23278;52.110;6.050;2022-12-29T09:31:35;9.30;99.90
37412;DHT22;23278;52.110;6.050;2022-12-29T09:34:01;9.20;99.90
37412;DHT22;23278;52.110;6.050;2022-12-29T09:36:27;9.20;99.90
37412;DHT22;23278;52.110;6.050;2022-12-29T09:38:53;9.10;99.90
37412;DHT22;23278;52.110;6.050;2022-12-29T09:41:32;9.20;99.90
37412;DHT22;23278;52.110;6.050;2022-12-29T09:44:06;9.10;99.90
37412;DHT22;23278;52.110;6.050;2022-12-29T09:46:49;9.10;99.90
37412;DHT22;23278;52.110;6.050;2022-12-29T09:49:22;9.10;99.90
37412;DHT22;23278;52.110;6.050;2022-12-29T09:51:53;9.20;99.90
37412;DHT22;23278;52.110;6.050;2022-12-29T09:56:58;9.20;99.90
37412;DHT22;23278;52.110;6.050;2022-12-29T09:59:30;9.20;99.90
37412;DHT22;23278;52.110;6.050;2022-12-29T10:02:11;9.20;99.90
37412;DHT22;23278;52.110;6.050;2022-12-29T10:04:40;9.20;99.90
37412;DHT22;23278;52.110;6.050;2022-12-29T10:07:23;9.20;99.90
37412;DHT22;23278;52.110;6.050;2022-12-29T10:24:12;9.10;99.90
37412;DHT22;23278;52.110;6.050;2022-12-29T10:26:42;9.10;99.90
37412;DHT22;23278;52.110;6.050;2022-12-29T10:29:19;9.20;99.90
37412;DHT22;23278;52.110;6.050;2022-12-29T10:32:00;9.10;99.90
37412;DHT22;23278;52.110;6.050;2022-12-29T10:34:31;9.10;99.90
37412;DHT22;23278;52.110;6.050;2022-12-29T10:39:42;9.20;99.90
37412;DHT22;23278;52.110;6.050;2022-12-29T10:42:13;9.10;99.90
37412;DHT22;23278;52.110;6.050;2022-12-29T10:44:41;9.10;99.90
37412;DHT22;23278;52.110;6.050;2022-12-29T10:47:13;9.10;99.90
37412;DHT22;23278;52.110;6.050;2022-12-29T10:49:42;9.10;99.90
37412;DHT22;23278;52.110;6.050;2022-12-29T10:52:11;9.10;99.90
37412;DHT22;23278;52.110;6.050;2022-12-29T10:54:54;9.20;99.90
37412;DHT22;23278;52.110;6.050;2022-12-29T10:59:47;9.20;99.90
37412;DHT22;23278;52.110;6.050;2022-12-29T11:05:40;9.30;99.90
37412;DHT22;23278;52.110;6.050;2022-12-29T11:08:16;9.30;99.90
37412;DHT22;23278;52.110;6.050;2022-12-29T11:10:45;9.20;99.90
37412;DHT22;23278;52.110;6.050;2022-12-29T11:13:24;9.30;99.90
37412;DHT22;23278;52.110;6.050;2022-12-29T11:15:51;9.30;99.90
37412;DHT22;23278;52.110;6.050;2022-12-29T11:20:48;9.30;99.90
37412;DHT22;23278;52.110;6.050;2022-12-29T11:23:39;9.30;99.90
37412;DHT22;23278;52.110;6.050;2022-12-29T11:26:32;9.30;99.90
37412;DHT22;23278;52.110;6.050;2022-12-29T11:29:10;9.30;99.90
37412;DHT22;23278;52.110;6.050;2022-12-29T11:31:42;9.20;99.90
37412;DHT22;23278;52.110;6.050;2022-12-29T11:34:08;9.20;99.90
37412;DHT22;23278;52.110;6.050;2022-12-29T11:36:35;9.30;99.90
37412;DHT22;23278;52.110;6.050;2022-12-29T11:39:02;9.30;99.90
37412;DHT22;23278;52.110;6.050;2022-12-29T11:41:29;9.50;99.90
37412;DHT22;23278;52.110;6.050;2022-12-29T11:43:58;9.50;99.90
37412;DHT22;23278;52.110;6.050;2022-12-29T11:46:34;9.40;99.90
37412;DHT22;23278;52.110;6.050;2022-12-29T11:49:02;9.30;99.90
37412;DHT22;23278;52.110;6.050;2022-12-29T11:51:36;9.30;99.90
37412;DHT22;23278;52.110;6.050;2022-12-29T11:54:04;9.30;99.90
37412;DHT22;23278;52.110;6.050;2022-12-29T11:56:40;9.30;99.90
37412;DHT22;23278;52.110;6.050;2022-12-29T12:02:24;9.30;99.90
37412;DHT22;23278;52.110;6.050;2022-12-29T12:10:49;9.20;99.90
37412;DHT22;23278;52.110;6.050;2022-12-29T12:13:18;9.20;99.90
37412;DHT22;23278;52.110;6.050;2022-12-29T12:15:54;9.20;99.90
37412;DHT22;23278;52.110;6.050;2022-12-29T12:21:24;9.10;99.90
37412;DHT22;23278;52.110;6.050;2022-12-29T12:27:12;9.20;99.90
37412;DHT22;23278;52.110;6.050;2022-12-29T12:32:29;9.20;99.90
37412;DHT22;23278;52.110;6.050;2022-12-29T12:35:03;9.00;99.90
37412;DHT22;23278;52.110;6.050;2022-12-29T12:37:57;8.90;99.90
37412;DHT22;23278;52.110;6.050;2022-12-29T12:40:53;8.80;99.90
37412;DHT22;23278;52.110;6.050;2022-12-29T12:43:29;8.80;99.90
37412;DHT22;23278;52.110;6.050;2022-12-29T12:46:42;8.80;99.90
37412;DHT22;23278;52.110;6.050;2022-12-29T13:00:21;9.10;99.90
37412;DHT22;23278;52.110;6.050;2022-12-29T13:27:42;9.40;99.90
37412;DHT22;23278;52.110;6.050;2022-12-29T13:30:15;9.40;99.90
37412;DHT22;23278;52.110;6.050;2022-12-29T13:32:53;9.50;99.90
37412;DHT22;23278;52.110;6.050;2022-12-29T13:35:48;9.40;99.90
37412;DHT22;23278;52.110;6.050;2022-12-29T13:38:19;9.40;99.90
37412;DHT22;23278;52.110;6.050;2022-12-29T13:40:50;9.30;99.90
37412;DHT22;23278;52.110;6.050;2022-12-29T13:43:19;9.30;99.90
37412;DHT22;23278;52.110;6.050;2022-12-29T13:45:55;9.40;99.90
37412;DHT22;23278;52.110;6.050;2022-12-29T13:48:33;9.40;99.90
37412;DHT22;23278;52.110;6.050;2022-12-29T13:51:00;9.40;99.90
37412;DHT22;23278;52.110;6.050;2022-12-29T13:53:35;9.50;99.90
37412;DHT22;23278;52.110;6.050;2022-12-29T14:01:41;9.50;99.90
37412;DHT22;23278;52.110;6.050;2022-12-29T14:04:23;9.40;99.90
37412;DHT22;23278;52.110;6.050;2022-12-29T14:07:03;9.40;99.90
37412;DHT22;23278;52.110;6.050;2022-12-29T14:09:39;9.30;99.90
37412;DHT22;23278;52.110;6.050;2022-12-29T14:17:43;9.30;99.90
37412;DHT22;23278;52.110;6.050;2022-12-29T14:20:27;9.30;99.90
37412;DHT22;23278;52.110;6.050;2022-12-29T14:23:47;9.30;99.90
37412;DHT22;23278;52.110;6.050;2022-12-29T14:25:57;9.30;99.90
37412;DHT22;23278;52.110;6.050;2022-12-29T14:28:26;9.30;99.90
37412;DHT22;23278;52.110;6.050;2022-12-29T14:30:54;9.30;99.90
37412;DHT22;23278;52.110;6.050;2022-12-29T14:33:21;9.30;99.90
37412;DHT22;23278;52.110;6.050;2022-12-29T14:35:48;9.30;99.90
37412;DHT22;23278;52.110;6.050;2022-12-29T14:38:22;9.30;99.90
37412;DHT22;23278;52.110;6.050;2022-12-29T14:40:49;9.30;99.90
37412;DHT22;23278;52.110;6.050;2022-12-29T14:43:24;9.30;99.90
37412;DHT22;23278;52.110;6.050;2022-12-29T14:46:01;9.30;99.90
37412;DHT22;23278;52.110;6.050;2022-12-29T14:48:37;9.20;99.90
37412;DHT22;23278;52.110;6.050;2022-12-29T14:51:18;9.20;99.90
37412;DHT22;23278;52.110;6.050;2022-12-29T14:53:51;9.20;99.90
37412;DHT22;23278;52.110;6.050;2022-12-29T14:56:19;9.10;99.90
37412;DHT22;23278;52.110;6.050;2022-12-29T14:59:02;9.00;99.90
37412;DHT22;23278;52.110;6.050;2022-12-29T15:04:04;8.90;99.90
37412;DHT22;23278;52.110;6.050;2022-12-29T15:06:31;8.80;99.90
37412;DHT22;23278;52.110;6.050;2022-12-29T15:09:22;8.70;99.90
37412;DHT22;23278;52.110;6.050;2022-12-29T15:11:56;8.70;99.90
37412;DHT22;23278;52.110;6.050;2022-12-29T15:14:36;8.60;99.90
37412;DHT22;23278;52.110;6.050;2022-12-29T15:17:12;8.60;99.90
37412;DHT22;23278;52.110;6.050;2022-12-29T15:19:47;8.60;99.90
37412;DHT22;23278;52.110;6.050;2022-12-29T15:22:14;8.50;99.90
37412;DHT22;23278;52.110;6.050;2022-12-29T15:24:44;8.50;99.90
37412;DHT22;23278;52.110;6.050;2022-12-29T15:27:14;8.60;99.90
37412;DHT22;23278;52.110;6.050;2022-12-29T15:29:43;8.50;99.90
37412;DHT22;23278;52.110;6.050;2022-12-29T15:34:42;8.50;99.90
37412;DHT22;23278;52.110;6.050;2022-12-29T15:37:09;8.50;99.90
37412;DHT22;23278;52.110;6.050;2022-12-29T15:39:35;8.50;99.90
37412;DHT22;23278;52.110;6.050;2022-12-29T15:42:16;8.50;99.90
37412;DHT22;23278;52.110;6.050;2022-12-29T15:44:46;8.50;99.90
37412;DHT22;23278;52.110;6.050;2022-12-29T15:47:22;8.60;99.90
37412;DHT22;23278;52.110;6.050;2022-12-29T15:49:53;8.60;99.90
37412;DHT22;23278;52.110;6.050;2022-12-29T15:52:23;8.60;99.90
37412;DHT22;23278;52.110;6.050;2022-12-29T15:54:51;8.60;99.90
37412;DHT22;23278;52.110;6.050;2022-12-29T15:57:22;8.60;99.90
37412;DHT22;23278;52.110;6.050;2022-12-29T15:59:48;8.60;99.90
37412;DHT22;23278;52.110;6.050;2022-12-29T16:02:14;8.60;99.90
37412;DHT22;23278;52.110;6.050;2022-12-29T16:04:40;8.60;99.90
37412;DHT22;23278;52.110;6.050;2022-12-29T16:07:29;8.70;99.90
37412;DHT22;23278;52.110;6.050;2022-12-29T16:09:58;8.70;99.90
37412;DHT22;23278;52.110;6.050;2022-12-29T16:12:35;8.70;99.90
37412;DHT22;23278;52.110;6.050;2022-12-29T16:15:07;8.70;99.90
37412;DHT22;23278;52.110;6.050;2022-12-29T16:17:50;8.80;99.90
37412;DHT22;23278;52.110;6.050;2022-12-29T16:20:21;8.80;99.90
37412;DHT22;23278;52.110;6.050;2022-12-29T16:22:52;8.80;99.90
37412;DHT22;23278;52.110;6.050;2022-12-29T16:27:49;8.80;99.90
37412;DHT22;23278;52.110;6.050;2022-12-29T16:30:30;8.70;99.90
37412;DHT22;23278;52.110;6.050;2022-12-29T16:32:59;8.70;99.90
37412;DHT22;23278;52.110;6.050;2022-12-29T16:35:27;8.70;99.90
37412;DHT22;23278;52.110;6.050;2022-12-29T16:38:14;8.70;99.90
37412;DHT22;23278;52.110;6.050;2022-12-29T16:43:24;8.60;99.90
37412;DHT22;23278;52.110;6.050;2022-12-29T16:50:43;8.50;99.90
37412;DHT22;23278;52.110;6.050;2022-12-29T16:53:40;8.50;99.90
37412;DHT22;23278;52.110;6.050;2022-12-29T16:56:19;8.40;99.90
37412;DHT22;23278;52.110;6.050;2022-12-29T16:58:50;8.40;99.90
37412;DHT22;23278;52.110;6.050;2022-12-29T17:01:19;8.30;99.90
37412;DHT22;23278;52.110;6.050;2022-12-29T17:03:54;8.20;99.90
37412;DHT22;23278;52.110;6.050;2022-12-29T17:06:22;8.30;99.90
37412;DHT22;23278;52.110;6.050;2022-12-29T17:08:49;8.20;99.90
37412;DHT22;23278;52.110;6.050;2022-12-29T17:11:31;8.20;99.90
37412;DHT22;23278;52.110;6.050;2022-12-29T17:14:56;8.20;99.90
37412;DHT22;23278;52.110;6.050;2022-12-29T17:20:22;8.20;99.90
37412;DHT22;23278;52.110;6.050;2022-12-29T17:22:49;8.10;99.90
37412;DHT22;23278;52.110;6.050;2022-12-29T17:25:34;8.10;99.90
37412;DHT22;23278;52.110;6.050;2022-12-29T17:28:04;8.10;99.90
37412;DHT22;23278;52.110;6.050;2022-12-29T17:30:33;8.10;99.90
37412;DHT22;23278;52.110;6.050;2022-12-29T17:33:04;8.00;99.90
37412;DHT22;23278;52.110;6.050;2022-12-29T17:35:30;8.00;99.90
37412;DHT22;23278;52.110;6.050;2022-12-29T17:37:56;7.90;99.90
37412;DHT22;23278;52.110;6.050;2022-12-29T17:40:31;7.90;99.90
37412;DHT22;23278;52.110;6.050;2022-12-29T17:42:58;7.80;99.90
37412;DHT22;23278;52.110;6.050;2022-12-29T17:45:29;7.80;99.90
37412;DHT22;23278;52.110;6.050;2022-12-29T17:47:56;7.70;99.90
37412;DHT22;23278;52.110;6.050;2022-12-29T17:50:26;7.70;99.90
37412;DHT22;23278;52.110;6.050;2022-12-29T17:52:59;7.70;99.90
37412;DHT22;23278;52.110;6.050;2022-12-29T17:55:26;7.70;99.90
37412;DHT22;23278;52.110;6.050;2022-12-29T17:57:53;7.70;99.90
37412;DHT22;23278;52.110;6.050;2022-12-29T18:00:23;7.70;99.90
37412;DHT22;23278;52.110;6.050;2022-12-29T18:02:49;7.70;99.90
37412;DHT22;23278;52.110;6.050;2022-12-29T18:05:29;7.70;99.90
37412;DHT22;23278;52.110;6.050;2022-12-29T18:07:57;7.70;99.90
37412;DHT22;23278;52.110;6.050;2022-12-29T18:10:25;7.70;99.90
37412;DHT22;23278;52.110;6.050;2022-12-29T18:12:54;7.60;99.90
37412;DHT22;23278;52.110;6.050;2022-12-29T18:15:25;7.60;99.90
37412;DHT22;23278;52.110;6.050;2022-12-29T18:18:27;7.50;99.90
37412;DHT22;23278;52.110;6.050;2022-12-29T18:20:48;7.50;99.90
37412;DHT22;23278;52.110;6.050;2022-12-29T18:23:31;7.40;99.90
37412;DHT22;23278;52.110;6.050;2022-12-29T18:26:06;7.40;99.90
37412;DHT22;23278;52.110;6.050;2022-12-29T18:28:32;7.40;99.90
37412;DHT22;23278;52.110;6.050;2022-12-29T18:31:00;7.40;99.90
37412;DHT22;23278;52.110;6.050;2022-12-29T18:33:26;7.40;99.90
37412;DHT22;23278;52.110;6.050;2022-12-29T18:36:03;7.40;99.90
37412;DHT22;23278;52.110;6.050;2022-12-29T18:38:30;7.50;99.90
37412;DHT22;23278;52.110;6.050;2022-12-29T18:40:57;7.50;99.90
37412;DHT22;23278;52.110;6.050;2022-12-29T18:43:24;7.60;99.90
37412;DHT22;23278;52.110;6.050;2022-12-29T18:45:50;7.70;99.90